Messwerte Wabush Lake

Temperatur

Temperatur
°C
1594116000 7.00 7.00 14
1594119600 8.00 8.00 17
1594123200 9.00 9.00 18
1594126800 10.00 10.00 20
1594130400 11.00 11.00
1594134000 12.00 12.00 23
1594137600 13.00 13.00 23
1594141200 14.00 14.00 23
1594144800 15.00 15.00 23
1594148400 16.00 16.00 23
1594152000 17.00 17.00 24
1594155600 18.00 18.00 23
1594159200 19.00 19.00 22
1594162800 20.00 20.00 21
1594166400 21.00 21.00 20
1594170000 22.00 22.00 18
1594173600 23.00 23.00 14
1594177200 0.00 0.00 14
1594180800 1.00 1.00
1594184400 2.00 2.00 13
1594188000 3.00 3.00 13
1594191600 4.00 4.00 13
1594195200 5.00 5.00 14
1594198800 6.00 6.00 14

Aktuellste Messwerte

Wettercharakter
Wetter: bedeckt
Temperatur
14 °C
Feuchtigkeit
94 %
Wind
10 km/hWindrichtung: Südwest
Luftdruck
1008 hPa
Messzeit: 8. Juli 2020, 6.00Datenquelle: METAR

Weitere Messstationen in der Nähe

Messstation Temperatur Entfernung
Churchill Falls 13 °C 197 km
Schefferville 15 °C 209 km
Sept-Îles 16 °C 303 km
Sept-Îles 16 °C 303 km
Ile Aux Perroquets 13 °C 351 km
Havre-Saint-Pierre 15 °C 370 km
Bonnard 1 - 375 km

Wind

Windrichtung Böen Mittelwind
° km/h km/h
1594116000 7.00 6.00 - 7.00 190° 5
1594119600 8.00 7.00 - 8.00 200° 15
1594123200 9.00 8.00 - 9.00 210° 20
1594126800 10.00 9.00 - 10.00 210° 15
1594130400 11.00 10.00 - 11.00
1594134000 12.00 11.00 - 12.00 210° 30 20
1594137600 13.00 12.00 - 13.00 220° 35 25
1594141200 14.00 13.00 - 14.00 200° 30 20
1594144800 15.00 14.00 - 15.00 210° 25
1594148400 16.00 15.00 - 16.00 200° 40 30
1594152000 17.00 16.00 - 17.00 210° 30 20
1594155600 18.00 17.00 - 18.00 200° 30
1594159200 19.00 18.00 - 19.00 190° 40 30
1594162800 20.00 19.00 - 20.00 190° 20
1594166400 21.00 20.00 - 21.00 180° 30 20
1594170000 22.00 21.00 - 22.00 240° 45 25
1594173600 23.00 22.00 - 23.00 190° 20
1594177200 0.00 23.00 - 0.00 180° 30 20
1594180800 1.00 0.00 - 1.00
1594184400 2.00 1.00 - 2.00 180° 35 20
1594188000 3.00 2.00 - 3.00 180° 20
1594191600 4.00 3.00 - 4.00 200° 30 15
1594195200 5.00 4.00 - 5.00 210° 15
1594198800 6.00 5.00 - 6.00 210° 10

Ihre Wetterstation

Fehlt Ihre Wetterstation auf unserem Portal?

Schreiben Sie an network@meteonews.ch

Klima

Wann ist es am wärmsten? Wann regnet es am wenigsten? Unsere Klimadaten geben Auskunft.